sensor_id;sensor_type;location;lat;lon;timestamp;temperature;humidity
52481;DHT22;38393;52.404;13.532;2023-05-10T00:02:23;10.90;70.50
52481;DHT22;38393;52.404;13.532;2023-05-10T00:04:49;11.00;70.80
52481;DHT22;38393;52.404;13.532;2023-05-10T00:07:15;10.80;71.10
52481;DHT22;38393;52.404;13.532;2023-05-10T00:09:42;11.00;71.20
52481;DHT22;38393;52.404;13.532;2023-05-10T00:12:08;11.00;71.70
52481;DHT22;38393;52.404;13.532;2023-05-10T00:14:33;11.00;70.80
52481;DHT22;38393;52.404;13.532;2023-05-10T00:16:59;11.00;71.10
52481;DHT22;38393;52.404;13.532;2023-05-10T00:19:24;10.90;71.40
52481;DHT22;38393;52.404;13.532;2023-05-10T00:21:50;10.90;71.60
52481;DHT22;38393;52.404;13.532;2023-05-10T00:24:15;10.80;71.70
52481;DHT22;38393;52.404;13.532;2023-05-10T00:26:40;10.90;71.50
52481;DHT22;38393;52.404;13.532;2023-05-10T00:29:07;10.80;71.40
52481;DHT22;38393;52.404;13.532;2023-05-10T00:31:33;11.00;71.90
52481;DHT22;38393;52.404;13.532;2023-05-10T00:33:58;10.80;71.90
52481;DHT22;38393;52.404;13.532;2023-05-10T00:36:23;10.70;72.00
52481;DHT22;38393;52.404;13.532;2023-05-10T00:38:49;10.70;72.40
52481;DHT22;38393;52.404;13.532;2023-05-10T00:41:14;10.60;72.30
52481;DHT22;38393;52.404;13.532;2023-05-10T00:43:40;10.60;72.70
52481;DHT22;38393;52.404;13.532;2023-05-10T00:46:06;10.60;73.20
52481;DHT22;38393;52.404;13.532;2023-05-10T00:48:32;10.50;73.30
52481;DHT22;38393;52.404;13.532;2023-05-10T00:50:58;10.30;73.30
52481;DHT22;38393;52.404;13.532;2023-05-10T00:53:24;10.40;74.00
52481;DHT22;38393;52.404;13.532;2023-05-10T00:55:50;10.40;74.10
52481;DHT22;38393;52.404;13.532;2023-05-10T00:58:16;10.40;74.20
52481;DHT22;38393;52.404;13.532;2023-05-10T01:00:42;10.40;74.70
52481;DHT22;38393;52.404;13.532;2023-05-10T01:03:10;10.30;75.00
52481;DHT22;38393;52.404;13.532;2023-05-10T01:05:36;10.20;74.90
52481;DHT22;38393;52.404;13.532;2023-05-10T01:08:02;10.20;75.10
52481;DHT22;38393;52.404;13.532;2023-05-10T01:10:28;10.20;75.50
52481;DHT22;38393;52.404;13.532;2023-05-10T01:12:53;10.10;75.60
52481;DHT22;38393;52.404;13.532;2023-05-10T01:15:20;10.10;75.80
52481;DHT22;38393;52.404;13.532;2023-05-10T01:17:47;10.10;76.00
52481;DHT22;38393;52.404;13.532;2023-05-10T01:20:14;10.10;76.40
52481;DHT22;38393;52.404;13.532;2023-05-10T01:25:27;10.10;76.10
52481;DHT22;38393;52.404;13.532;2023-05-10T01:28:08;10.10;76.60
52481;DHT22;38393;52.404;13.532;2023-05-10T01:38:51;10.00;77.10
52481;DHT22;38393;52.404;13.532;2023-05-10T01:41:35;10.00;77.70
52481;DHT22;38393;52.404;13.532;2023-05-10T01:44:17;9.80;77.50
52481;DHT22;38393;52.404;13.532;2023-05-10T01:46:50;9.80;78.20
52481;DHT22;38393;52.404;13.532;2023-05-10T01:49:25;9.80;78.40
52481;DHT22;38393;52.404;13.532;2023-05-10T01:51:54;9.80;78.50
52481;DHT22;38393;52.404;13.532;2023-05-10T01:54:22;9.70;78.40
52481;DHT22;38393;52.404;13.532;2023-05-10T01:56:55;9.70;78.90
52481;DHT22;38393;52.404;13.532;2023-05-10T01:59:22;9.70;79.10
52481;DHT22;38393;52.404;13.532;2023-05-10T02:01:50;9.70;79.00
52481;DHT22;38393;52.404;13.532;2023-05-10T02:04:17;9.40;79.20
52481;DHT22;38393;52.404;13.532;2023-05-10T02:06:45;9.60;79.40
52481;DHT22;38393;52.404;13.532;2023-05-10T02:09:11;9.80;79.40
52481;DHT22;38393;52.404;13.532;2023-05-10T02:11:39;9.60;79.20
52481;DHT22;38393;52.404;13.532;2023-05-10T02:14:09;9.70;79.10
52481;DHT22;38393;52.404;13.532;2023-05-10T02:16:38;9.60;79.30
52481;DHT22;38393;52.404;13.532;2023-05-10T02:19:05;9.60;80.10
52481;DHT22;38393;52.404;13.532;2023-05-10T02:21:31;9.70;79.40
52481;DHT22;38393;52.404;13.532;2023-05-10T02:23:59;9.50;80.00
52481;DHT22;38393;52.404;13.532;2023-05-10T02:26:26;9.40;80.20
52481;DHT22;38393;52.404;13.532;2023-05-10T02:28:53;9.50;80.10
52481;DHT22;38393;52.404;13.532;2023-05-10T02:31:20;9.30;80.40
52481;DHT22;38393;52.404;13.532;2023-05-10T02:33:47;9.30;80.60
52481;DHT22;38393;52.404;13.532;2023-05-10T02:36:13;9.30;81.00
52481;DHT22;38393;52.404;13.532;2023-05-10T02:38:40;9.30;81.10
52481;DHT22;38393;52.404;13.532;2023-05-10T02:41:08;9.30;81.40
52481;DHT22;38393;52.404;13.532;2023-05-10T02:43:33;9.30;81.20
52481;DHT22;38393;52.404;13.532;2023-05-10T02:46:00;9.30;81.00
52481;DHT22;38393;52.404;13.532;2023-05-10T02:48:26;9.40;81.50
52481;DHT22;38393;52.404;13.532;2023-05-10T02:50:55;9.20;81.40
52481;DHT22;38393;52.404;13.532;2023-05-10T02:53:30;9.20;81.10
52481;DHT22;38393;52.404;13.532;2023-05-10T02:55:59;9.20;82.00
52481;DHT22;38393;52.404;13.532;2023-05-10T02:58:25;9.20;81.00
52481;DHT22;38393;52.404;13.532;2023-05-10T03:00:51;9.20;81.50
52481;DHT22;38393;52.404;13.532;2023-05-10T03:03:17;9.30;81.90
52481;DHT22;38393;52.404;13.532;2023-05-10T03:05:42;9.10;82.10
52481;DHT22;38393;52.404;13.532;2023-05-10T03:08:08;9.10;81.70
52481;DHT22;38393;52.404;13.532;2023-05-10T03:10:41;9.10;81.70
52481;DHT22;38393;52.404;13.532;2023-05-10T03:13:20;9.00;82.10
52481;DHT22;38393;52.404;13.532;2023-05-10T03:15:59;8.90;82.40
52481;DHT22;38393;52.404;13.532;2023-05-10T03:18:41;8.90;82.60
52481;DHT22;38393;52.404;13.532;2023-05-10T03:21:11;9.00;83.60
52481;DHT22;38393;52.404;13.532;2023-05-10T03:23:44;9.00;82.70
52481;DHT22;38393;52.404;13.532;2023-05-10T03:26:17;9.00;82.60
52481;DHT22;38393;52.404;13.532;2023-05-10T03:28:43;8.90;82.70
52481;DHT22;38393;52.404;13.532;2023-05-10T03:31:09;9.00;82.30
52481;DHT22;38393;52.404;13.532;2023-05-10T03:33:35;9.10;81.90
52481;DHT22;38393;52.404;13.532;2023-05-10T03:36:00;9.10;82.10
52481;DHT22;38393;52.404;13.532;2023-05-10T03:38:26;9.10;81.50
52481;DHT22;38393;52.404;13.532;2023-05-10T03:40:51;9.10;81.40
52481;DHT22;38393;52.404;13.532;2023-05-10T03:43:17;9.10;81.70
52481;DHT22;38393;52.404;13.532;2023-05-10T03:45:42;9.10;81.50
52481;DHT22;38393;52.404;13.532;2023-05-10T03:48:08;9.10;81.80
52481;DHT22;38393;52.404;13.532;2023-05-10T03:50:33;9.10;81.50
52481;DHT22;38393;52.404;13.532;2023-05-10T03:52:58;9.20;80.90
52481;DHT22;38393;52.404;13.532;2023-05-10T03:55:24;9.20;81.50
52481;DHT22;38393;52.404;13.532;2023-05-10T03:57:50;9.20;81.00
52481;DHT22;38393;52.404;13.532;2023-05-10T04:00:15;9.30;80.80
52481;DHT22;38393;52.404;13.532;2023-05-10T04:02:41;9.40;80.20
52481;DHT22;38393;52.404;13.532;2023-05-10T04:05:07;9.50;80.30
52481;DHT22;38393;52.404;13.532;2023-05-10T04:07:32;9.50;80.40
52481;DHT22;38393;52.404;13.532;2023-05-10T04:09:58;9.60;79.60
52481;DHT22;38393;52.404;13.532;2023-05-10T04:12:24;9.60;79.60
52481;DHT22;38393;52.404;13.532;2023-05-10T04:14:49;9.70;79.00
52481;DHT22;38393;52.404;13.532;2023-05-10T04:17:15;9.90;78.70
52481;DHT22;38393;52.404;13.532;2023-05-10T04:19:40;10.00;77.80
52481;DHT22;38393;52.404;13.532;2023-05-10T04:22:05;10.20;76.90
52481;DHT22;38393;52.404;13.532;2023-05-10T04:24:31;10.40;76.80
52481;DHT22;38393;52.404;13.532;2023-05-10T04:26:56;10.40;76.10
52481;DHT22;38393;52.404;13.532;2023-05-10T04:29:22;10.50;76.30
52481;DHT22;38393;52.404;13.532;2023-05-10T04:31:47;10.60;75.20
52481;DHT22;38393;52.404;13.532;2023-05-10T04:34:14;10.70;74.40
52481;DHT22;38393;52.404;13.532;2023-05-10T04:36:39;10.90;73.80
52481;DHT22;38393;52.404;13.532;2023-05-10T04:39:04;11.00;73.80
52481;DHT22;38393;52.404;13.532;2023-05-10T04:41:30;11.00;73.30
52481;DHT22;38393;52.404;13.532;2023-05-10T04:43:56;11.00;74.30
52481;DHT22;38393;52.404;13.532;2023-05-10T04:46:21;11.00;73.20
52481;DHT22;38393;52.404;13.532;2023-05-10T04:48:47;11.00;73.50
52481;DHT22;38393;52.404;13.532;2023-05-10T04:51:12;11.10;72.70
52481;DHT22;38393;52.404;13.532;2023-05-10T04:53:38;11.20;72.20
52481;DHT22;38393;52.404;13.532;2023-05-10T04:56:04;11.40;71.50
52481;DHT22;38393;52.404;13.532;2023-05-10T04:58:29;11.40;71.50
52481;DHT22;38393;52.404;13.532;2023-05-10T05:00:55;11.50;71.40
52481;DHT22;38393;52.404;13.532;2023-05-10T05:03:20;11.50;70.90
52481;DHT22;38393;52.404;13.532;2023-05-10T05:05:47;11.50;70.10
52481;DHT22;38393;52.404;13.532;2023-05-10T05:08:12;11.70;70.70
52481;DHT22;38393;52.404;13.532;2023-05-10T05:10:38;11.60;70.40
52481;DHT22;38393;52.404;13.532;2023-05-10T05:13:03;11.80;70.10
52481;DHT22;38393;52.404;13.532;2023-05-10T05:15:29;11.80;71.40
52481;DHT22;38393;52.404;13.532;2023-05-10T05:17:55;12.00;68.90
52481;DHT22;38393;52.404;13.532;2023-05-10T05:20:21;12.00;69.50
52481;DHT22;38393;52.404;13.532;2023-05-10T05:22:46;12.10;69.70
52481;DHT22;38393;52.404;13.532;2023-05-10T05:25:12;12.20;69.30
52481;DHT22;38393;52.404;13.532;2023-05-10T05:27:37;12.20;68.50
52481;DHT22;38393;52.404;13.532;2023-05-10T05:30:03;12.30;69.10
52481;DHT22;38393;52.404;13.532;2023-05-10T05:32:29;12.30;68.20
52481;DHT22;38393;52.404;13.532;2023-05-10T05:34:55;12.40;68.00
52481;DHT22;38393;52.404;13.532;2023-05-10T05:37:21;12.50;68.30
52481;DHT22;38393;52.404;13.532;2023-05-10T05:39:47;12.60;68.00
52481;DHT22;38393;52.404;13.532;2023-05-10T05:42:13;12.60;68.10
52481;DHT22;38393;52.404;13.532;2023-05-10T05:44:39;12.90;68.00
52481;DHT22;38393;52.404;13.532;2023-05-10T05:47:04;12.90;67.70
52481;DHT22;38393;52.404;13.532;2023-05-10T05:49:30;13.00;67.90
52481;DHT22;38393;52.404;13.532;2023-05-10T05:52:02;13.30;66.90
52481;DHT22;38393;52.404;13.532;2023-05-10T05:54:29;13.20;66.40
52481;DHT22;38393;52.404;13.532;2023-05-10T05:56:58;13.30;66.30
52481;DHT22;38393;52.404;13.532;2023-05-10T05:59:24;13.60;65.50
52481;DHT22;38393;52.404;13.532;2023-05-10T06:01:50;13.60;64.80
52481;DHT22;38393;52.404;13.532;2023-05-10T06:04:15;13.60;65.70
52481;DHT22;38393;52.404;13.532;2023-05-10T06:06:41;13.80;64.20
52481;DHT22;38393;52.404;13.532;2023-05-10T06:09:07;13.90;63.90
52481;DHT22;38393;52.404;13.532;2023-05-10T06:11:33;14.00;64.00
52481;DHT22;38393;52.404;13.532;2023-05-10T06:13:59;14.00;63.80
52481;DHT22;38393;52.404;13.532;2023-05-10T06:16:25;14.30;62.90
52481;DHT22;38393;52.404;13.532;2023-05-10T06:18:51;14.30;62.90
52481;DHT22;38393;52.404;13.532;2023-05-10T06:21:17;14.50;62.80
52481;DHT22;38393;52.404;13.532;2023-05-10T06:23:42;14.60;62.00
52481;DHT22;38393;52.404;13.532;2023-05-10T06:26:08;14.80;62.10
52481;DHT22;38393;52.404;13.532;2023-05-10T06:28:33;14.90;62.20
52481;DHT22;38393;52.404;13.532;2023-05-10T06:30:59;15.00;61.20
52481;DHT22;38393;52.404;13.532;2023-05-10T06:33:25;15.20;59.60
52481;DHT22;38393;52.404;13.532;2023-05-10T06:35:51;15.00;61.00
52481;DHT22;38393;52.404;13.532;2023-05-10T06:38:16;15.10;61.10
52481;DHT22;38393;52.404;13.532;2023-05-10T06:40:42;15.30;60.10
52481;DHT22;38393;52.404;13.532;2023-05-10T06:43:08;15.50;59.30
52481;DHT22;38393;52.404;13.532;2023-05-10T06:45:33;15.40;59.60
52481;DHT22;38393;52.404;13.532;2023-05-10T06:47:59;15.70;60.30
52481;DHT22;38393;52.404;13.532;2023-05-10T06:50:24;15.40;58.70
52481;DHT22;38393;52.404;13.532;2023-05-10T06:52:50;15.50;59.30
52481;DHT22;38393;52.404;13.532;2023-05-10T06:55:16;15.60;58.90
52481;DHT22;38393;52.404;13.532;2023-05-10T06:57:41;15.90;59.10
52481;DHT22;38393;52.404;13.532;2023-05-10T07:00:07;16.00;58.30
52481;DHT22;38393;52.404;13.532;2023-05-10T07:02:32;15.90;57.50
52481;DHT22;38393;52.404;13.532;2023-05-10T07:04:58;16.10;59.60
52481;DHT22;38393;52.404;13.532;2023-05-10T07:07:23;16.10;58.20
52481;DHT22;38393;52.404;13.532;2023-05-10T07:09:49;16.30;57.50
52481;DHT22;38393;52.404;13.532;2023-05-10T07:12:15;16.40;57.80
52481;DHT22;38393;52.404;13.532;2023-05-10T07:14:40;16.30;56.90
52481;DHT22;38393;52.404;13.532;2023-05-10T07:17:06;16.20;57.30
52481;DHT22;38393;52.404;13.532;2023-05-10T07:19:31;16.30;57.10
52481;DHT22;38393;52.404;13.532;2023-05-10T07:21:58;16.50;57.40
52481;DHT22;38393;52.404;13.532;2023-05-10T07:24:23;16.80;57.20
52481;DHT22;38393;52.404;13.532;2023-05-10T07:26:49;16.80;56.20
52481;DHT22;38393;52.404;13.532;2023-05-10T07:29:15;16.80;55.50
52481;DHT22;38393;52.404;13.532;2023-05-10T07:31:40;16.90;56.70
52481;DHT22;38393;52.404;13.532;2023-05-10T07:34:08;16.90;56.10
52481;DHT22;38393;52.404;13.532;2023-05-10T07:36:34;17.00;56.10
52481;DHT22;38393;52.404;13.532;2023-05-10T07:38:59;17.10;55.20
52481;DHT22;38393;52.404;13.532;2023-05-10T07:41:25;17.00;55.80
52481;DHT22;38393;52.404;13.532;2023-05-10T07:43:50;17.00;55.40
52481;DHT22;38393;52.404;13.532;2023-05-10T07:46:15;17.00;54.60
52481;DHT22;38393;52.404;13.532;2023-05-10T07:48:41;17.10;54.70
52481;DHT22;38393;52.404;13.532;2023-05-10T07:51:07;17.20;55.00
52481;DHT22;38393;52.404;13.532;2023-05-10T07:53:34;17.40;55.30
52481;DHT22;38393;52.404;13.532;2023-05-10T07:56:26;17.60;55.60
52481;DHT22;38393;52.404;13.532;2023-05-10T07:58:55;17.70;54.20
52481;DHT22;38393;52.404;13.532;2023-05-10T08:01:21;17.80;54.00
52481;DHT22;38393;52.404;13.532;2023-05-10T08:03:47;17.80;54.30
52481;DHT22;38393;52.404;13.532;2023-05-10T08:06:14;17.80;54.80
52481;DHT22;38393;52.404;13.532;2023-05-10T08:08:40;17.90;54.00
52481;DHT22;38393;52.404;13.532;2023-05-10T08:11:06;18.00;54.40
52481;DHT22;38393;52.404;13.532;2023-05-10T08:13:31;18.10;54.40
52481;DHT22;38393;52.404;13.532;2023-05-10T08:15:57;18.10;53.90
52481;DHT22;38393;52.404;13.532;2023-05-10T08:18:22;18.20;53.50
52481;DHT22;38393;52.404;13.532;2023-05-10T08:20:48;18.50;54.40
52481;DHT22;38393;52.404;13.532;2023-05-10T08:23:13;18.30;53.50
52481;DHT22;38393;52.404;13.532;2023-05-10T08:25:39;18.20;53.00
52481;DHT22;38393;52.404;13.532;2023-05-10T08:28:05;18.30;53.80
52481;DHT22;38393;52.404;13.532;2023-05-10T08:30:30;18.50;53.60
52481;DHT22;38393;52.404;13.532;2023-05-10T08:32:56;18.30;53.30
52481;DHT22;38393;52.404;13.532;2023-05-10T08:35:21;18.40;53.10
52481;DHT22;38393;52.404;13.532;2023-05-10T08:37:46;18.40;53.30
52481;DHT22;38393;52.404;13.532;2023-05-10T08:40:12;18.30;52.60
52481;DHT22;38393;52.404;13.532;2023-05-10T08:42:40;18.60;52.90
52481;DHT22;38393;52.404;13.532;2023-05-10T08:45:08;18.70;53.00
52481;DHT22;38393;52.404;13.532;2023-05-10T08:47:36;18.80;52.90
52481;DHT22;38393;52.404;13.532;2023-05-10T08:50:03;18.80;52.90
52481;DHT22;38393;52.404;13.532;2023-05-10T08:52:30;19.00;52.90
52481;DHT22;38393;52.404;13.532;2023-05-10T08:54:56;18.90;52.70
52481;DHT22;38393;52.404;13.532;2023-05-10T08:57:21;18.80;53.30
52481;DHT22;38393;52.404;13.532;2023-05-10T08:59:47;18.90;53.30
52481;DHT22;38393;52.404;13.532;2023-05-10T09:02:13;19.00;52.10
52481;DHT22;38393;52.404;13.532;2023-05-10T09:04:39;19.10;52.50
52481;DHT22;38393;52.404;13.532;2023-05-10T09:07:05;19.30;52.20
52481;DHT22;38393;52.404;13.532;2023-05-10T09:09:31;19.10;52.10
52481;DHT22;38393;52.404;13.532;2023-05-10T09:11:57;19.20;50.90
52481;DHT22;38393;52.404;13.532;2023-05-10T09:14:24;19.10;51.80
52481;DHT22;38393;52.404;13.532;2023-05-10T09:16:50;19.30;52.20
52481;DHT22;38393;52.404;13.532;2023-05-10T09:19:15;19.50;52.70
52481;DHT22;38393;52.404;13.532;2023-05-10T09:21:41;19.70;51.30
52481;DHT22;38393;52.404;13.532;2023-05-10T09:24:07;19.70;51.80
52481;DHT22;38393;52.404;13.532;2023-05-10T09:26:34;19.70;52.10
52481;DHT22;38393;52.404;13.532;2023-05-10T09:29:01;19.80;51.00
52481;DHT22;38393;52.404;13.532;2023-05-10T09:31:48;19.70;50.80
52481;DHT22;38393;52.404;13.532;2023-05-10T09:34:17;19.80;50.90
52481;DHT22;38393;52.404;13.532;2023-05-10T09:36:51;19.90;50.20
52481;DHT22;38393;52.404;13.532;2023-05-10T09:39:16;19.90;50.40
52481;DHT22;38393;52.404;13.532;2023-05-10T09:41:43;19.90;51.10
52481;DHT22;38393;52.404;13.532;2023-05-10T09:44:09;20.10;50.20
52481;DHT22;38393;52.404;13.532;2023-05-10T09:46:35;20.10;50.50
52481;DHT22;38393;52.404;13.532;2023-05-10T09:49:01;20.20;50.90
52481;DHT22;38393;52.404;13.532;2023-05-10T09:51:26;20.30;50.60
52481;DHT22;38393;52.404;13.532;2023-05-10T09:54:12;20.50;49.50
52481;DHT22;38393;52.404;13.532;2023-05-10T09:56:38;20.50;48.90
52481;DHT22;38393;52.404;13.532;2023-05-10T09:59:06;20.40;49.20
52481;DHT22;38393;52.404;13.532;2023-05-10T10:01:32;20.30;48.90
52481;DHT22;38393;52.404;13.532;2023-05-10T10:03:58;20.50;49.70
52481;DHT22;38393;52.404;13.532;2023-05-10T10:06:24;20.40;48.20
52481;DHT22;38393;52.404;13.532;2023-05-10T10:08:50;20.60;48.80
52481;DHT22;38393;52.404;13.532;2023-05-10T10:11:16;20.70;48.10
52481;DHT22;38393;52.404;13.532;2023-05-10T10:13:42;20.90;48.60
52481;DHT22;38393;52.404;13.532;2023-05-10T10:16:08;21.00;48.60
52481;DHT22;38393;52.404;13.532;2023-05-10T10:18:36;20.80;47.90
52481;DHT22;38393;52.404;13.532;2023-05-10T10:21:05;21.00;47.80
52481;DHT22;38393;52.404;13.532;2023-05-10T10:23:31;21.00;47.70
52481;DHT22;38393;52.404;13.532;2023-05-10T10:25:58;20.90;47.80
52481;DHT22;38393;52.404;13.532;2023-05-10T10:28:37;21.00;47.30
52481;DHT22;38393;52.404;13.532;2023-05-10T10:33:51;21.10;48.30
52481;DHT22;38393;52.404;13.532;2023-05-10T10:36:20;21.30;47.40
52481;DHT22;38393;52.404;13.532;2023-05-10T10:41:29;21.20;45.80
52481;DHT22;38393;52.404;13.532;2023-05-10T10:49:24;21.60;46.40
52481;DHT22;38393;52.404;13.532;2023-05-10T10:55:20;21.70;46.20
52481;DHT22;38393;52.404;13.532;2023-05-10T10:57:55;21.90;45.80
52481;DHT22;38393;52.404;13.532;2023-05-10T11:00:34;22.00;44.60
52481;DHT22;38393;52.404;13.532;2023-05-10T11:03:04;21.70;45.30
52481;DHT22;38393;52.404;13.532;2023-05-10T11:05:42;21.70;45.70
52481;DHT22;38393;52.404;13.532;2023-05-10T11:08:20;21.60;45.70
52481;DHT22;38393;52.404;13.532;2023-05-10T11:13:38;21.90;46.90
52481;DHT22;38393;52.404;13.532;2023-05-10T11:16:35;22.00;45.80
52481;DHT22;38393;52.404;13.532;2023-05-10T11:19:13;22.20;44.40
52481;DHT22;38393;52.404;13.532;2023-05-10T11:21:48;22.20;43.20
52481;DHT22;38393;52.404;13.532;2023-05-10T11:24:16;22.20;43.00
52481;DHT22;38393;52.404;13.532;2023-05-10T11:26:42;22.10;43.90
52481;DHT22;38393;52.404;13.532;2023-05-10T11:29:08;22.10;43.60
52481;DHT22;38393;52.404;13.532;2023-05-10T11:31:33;22.30;44.60
52481;DHT22;38393;52.404;13.532;2023-05-10T11:34:00;22.10;44.30
52481;DHT22;38393;52.404;13.532;2023-05-10T11:36:32;22.30;44.70
52481;DHT22;38393;52.404;13.532;2023-05-10T11:38:58;22.20;42.30
52481;DHT22;38393;52.404;13.532;2023-05-10T11:41:24;22.40;43.00
52481;DHT22;38393;52.404;13.532;2023-05-10T11:43:53;22.20;43.30
52481;DHT22;38393;52.404;13.532;2023-05-10T11:46:21;22.30;42.90
52481;DHT22;38393;52.404;13.532;2023-05-10T11:48:50;22.40;43.80
52481;DHT22;38393;52.404;13.532;2023-05-10T11:51:23;22.40;45.10
52481;DHT22;38393;52.404;13.532;2023-05-10T11:53:54;22.40;44.00
52481;DHT22;38393;52.404;13.532;2023-05-10T11:56:20;22.30;42.30
52481;DHT22;38393;52.404;13.532;2023-05-10T11:58:55;22.30;43.10
52481;DHT22;38393;52.404;13.532;2023-05-10T12:01:21;22.50;42.40
52481;DHT22;38393;52.404;13.532;2023-05-10T12:03:48;22.50;42.40
52481;DHT22;38393;52.404;13.532;2023-05-10T12:06:14;22.50;42.50
52481;DHT22;38393;52.404;13.532;2023-05-10T12:08:44;22.70;44.00
52481;DHT22;38393;52.404;13.532;2023-05-10T12:11:12;22.70;42.10
52481;DHT22;38393;52.404;13.532;2023-05-10T12:13:43;22.80;43.60
52481;DHT22;38393;52.404;13.532;2023-05-10T12:16:20;22.90;42.70
52481;DHT22;38393;52.404;13.532;2023-05-10T12:18:48;23.20;42.80
52481;DHT22;38393;52.404;13.532;2023-05-10T12:21:14;23.00;41.10
52481;DHT22;38393;52.404;13.532;2023-05-10T12:23:40;23.00;42.60
52481;DHT22;38393;52.404;13.532;2023-05-10T12:26:08;23.00;42.00
52481;DHT22;38393;52.404;13.532;2023-05-10T12:28:34;23.20;42.10
52481;DHT22;38393;52.404;13.532;2023-05-10T12:31:01;23.10;42.00
52481;DHT22;38393;52.404;13.532;2023-05-10T12:33:27;23.10;41.70
52481;DHT22;38393;52.404;13.532;2023-05-10T12:36:00;23.20;42.00
52481;DHT22;38393;52.404;13.532;2023-05-10T12:38:31;23.00;41.80
52481;DHT22;38393;52.404;13.532;2023-05-10T12:41:02;23.20;40.70
52481;DHT22;38393;52.404;13.532;2023-05-10T12:43:28;23.30;41.10
52481;DHT22;38393;52.404;13.532;2023-05-10T12:45:53;23.30;40.70
52481;DHT22;38393;52.404;13.532;2023-05-10T12:48:19;23.40;41.30
52481;DHT22;38393;52.404;13.532;2023-05-10T12:50:46;23.40;41.30
52481;DHT22;38393;52.404;13.532;2023-05-10T12:53:13;23.30;42.00
52481;DHT22;38393;52.404;13.532;2023-05-10T12:55:44;23.60;41.40
52481;DHT22;38393;52.404;13.532;2023-05-10T12:58:09;23.40;41.70
52481;DHT22;38393;52.404;13.532;2023-05-10T13:00:35;23.40;41.90
52481;DHT22;38393;52.404;13.532;2023-05-10T13:03:04;23.50;43.00
52481;DHT22;38393;52.404;13.532;2023-05-10T13:05:34;23.50;42.70
52481;DHT22;38393;52.404;13.532;2023-05-10T13:07:59;23.50;40.80
52481;DHT22;38393;52.404;13.532;2023-05-10T13:10:25;23.40;41.40
52481;DHT22;38393;52.404;13.532;2023-05-10T13:12:51;23.30;40.80
52481;DHT22;38393;52.404;13.532;2023-05-10T13:15:16;23.70;40.10
52481;DHT22;38393;52.404;13.532;2023-05-10T13:17:42;23.90;39.00
52481;DHT22;38393;52.404;13.532;2023-05-10T13:20:08;24.00;38.80
52481;DHT22;38393;52.404;13.532;2023-05-10T13:22:34;24.00;39.40
52481;DHT22;38393;52.404;13.532;2023-05-10T13:25:00;23.90;40.60
52481;DHT22;38393;52.404;13.532;2023-05-10T13:27:26;23.90;39.00
52481;DHT22;38393;52.404;13.532;2023-05-10T13:29:51;24.00;37.50
52481;DHT22;38393;52.404;13.532;2023-05-10T13:32:16;24.00;37.20
52481;DHT22;38393;52.404;13.532;2023-05-10T13:34:42;24.00;39.20
52481;DHT22;38393;52.404;13.532;2023-05-10T13:37:07;24.00;38.50
52481;DHT22;38393;52.404;13.532;2023-05-10T13:39:33;23.90;38.60
52481;DHT22;38393;52.404;13.532;2023-05-10T13:41:59;23.90;38.50
52481;DHT22;38393;52.404;13.532;2023-05-10T13:44:25;23.40;38.10
52481;DHT22;38393;52.404;13.532;2023-05-10T13:46:51;23.30;39.90
52481;DHT22;38393;52.404;13.532;2023-05-10T13:49:16;23.70;41.10
52481;DHT22;38393;52.404;13.532;2023-05-10T13:51:43;23.80;37.60
52481;DHT22;38393;52.404;13.532;2023-05-10T13:54:08;24.00;38.20
52481;DHT22;38393;52.404;13.532;2023-05-10T13:56:34;24.20;38.70
52481;DHT22;38393;52.404;13.532;2023-05-10T13:58:59;24.30;36.90
52481;DHT22;38393;52.404;13.532;2023-05-10T14:01:25;24.20;35.90
52481;DHT22;38393;52.404;13.532;2023-05-10T14:03:50;24.00;34.60
52481;DHT22;38393;52.404;13.532;2023-05-10T14:06:16;24.10;37.80
52481;DHT22;38393;52.404;13.532;2023-05-10T14:08:41;24.10;36.10
52481;DHT22;38393;52.404;13.532;2023-05-10T14:11:07;24.00;37.10
52481;DHT22;38393;52.404;13.532;2023-05-10T14:13:32;24.20;37.80
52481;DHT22;38393;52.404;13.532;2023-05-10T14:15:58;24.20;36.40
52481;DHT22;38393;52.404;13.532;2023-05-10T14:18:26;24.20;38.20
52481;DHT22;38393;52.404;13.532;2023-05-10T14:20:51;24.10;36.70
52481;DHT22;38393;52.404;13.532;2023-05-10T14:23:17;24.00;38.80
52481;DHT22;38393;52.404;13.532;2023-05-10T14:25:44;24.20;36.90
52481;DHT22;38393;52.404;13.532;2023-05-10T14:28:10;24.10;36.30
52481;DHT22;38393;52.404;13.532;2023-05-10T14:30:36;24.30;36.80
52481;DHT22;38393;52.404;13.532;2023-05-10T14:33:02;24.20;35.30
52481;DHT22;38393;52.404;13.532;2023-05-10T14:35:28;24.30;35.70
52481;DHT22;38393;52.404;13.532;2023-05-10T14:37:53;24.20;36.00
52481;DHT22;38393;52.404;13.532;2023-05-10T14:40:19;24.20;38.30
52481;DHT22;38393;52.404;13.532;2023-05-10T14:42:46;24.20;37.30
52481;DHT22;38393;52.404;13.532;2023-05-10T14:45:11;24.20;37.20
52481;DHT22;38393;52.404;13.532;2023-05-10T14:47:37;24.40;35.60
52481;DHT22;38393;52.404;13.532;2023-05-10T14:50:03;24.30;35.30
52481;DHT22;38393;52.404;13.532;2023-05-10T14:52:29;24.10;35.80
52481;DHT22;38393;52.404;13.532;2023-05-10T14:54:54;24.10;36.20
52481;DHT22;38393;52.404;13.532;2023-05-10T14:57:20;24.00;37.60
52481;DHT22;38393;52.404;13.532;2023-05-10T14:59:45;23.90;37.60
52481;DHT22;38393;52.404;13.532;2023-05-10T15:02:11;24.20;37.30
52481;DHT22;38393;52.404;13.532;2023-05-10T15:04:36;24.20;37.50
52481;DHT22;38393;52.404;13.532;2023-05-10T15:07:02;24.40;37.70
52481;DHT22;38393;52.404;13.532;2023-05-10T15:09:27;24.30;36.60
52481;DHT22;38393;52.404;13.532;2023-05-10T15:11:54;24.20;37.00
52481;DHT22;38393;52.404;13.532;2023-05-10T15:14:19;24.30;37.30
52481;DHT22;38393;52.404;13.532;2023-05-10T15:16:45;24.40;37.70
52481;DHT22;38393;52.404;13.532;2023-05-10T15:19:10;24.40;38.30
52481;DHT22;38393;52.404;13.532;2023-05-10T15:21:36;24.20;36.40
52481;DHT22;38393;52.404;13.532;2023-05-10T15:24:05;24.20;37.10
52481;DHT22;38393;52.404;13.532;2023-05-10T15:26:30;24.10;36.70
52481;DHT22;38393;52.404;13.532;2023-05-10T15:28:56;24.10;37.40
52481;DHT22;38393;52.404;13.532;2023-05-10T15:31:21;24.10;36.90
52481;DHT22;38393;52.404;13.532;2023-05-10T15:33:47;24.20;37.70
52481;DHT22;38393;52.404;13.532;2023-05-10T15:36:12;24.30;38.00
52481;DHT22;38393;52.404;13.532;2023-05-10T15:38:38;24.50;39.20
52481;DHT22;38393;52.404;13.532;2023-05-10T15:41:03;24.40;37.50
52481;DHT22;38393;52.404;13.532;2023-05-10T15:43:29;24.30;37.90
52481;DHT22;38393;52.404;13.532;2023-05-10T15:45:54;24.20;38.30